Terminal Aerodrome Forecast
Issued by NWS

Home | Current Version | Previous Version | Text Only | Print | Product List | Glossary On
Versions: 1 2 3 4 5 6 7 8 9 10 11 12 13 14 15 16 17 18 19 20 21 22 23 24 25 26 27 28 29 30 31 32
000
FTUS43 KDLH 020200 AAA
TAFHYR
TAF AMD
KHYR 020200Z 0202/0224 VRB02KT 6SM HZ FEW030 SCT070
     FM020600 00000KT 3SM BR HZ VCSH SCT015 BKN080
      TEMPO 0209/0213 1SM BR HZ BKN009
     FM021700 18008KT P6SM SCT030 BKN100=

USA.gov is the U.S. government's official web portal to all federal, state and local government web resources and services.